Dr.kaiyo — JD2325 — position and weather

sailwx.info

Track history (hours):
 
Tides and Currents Weather Stations Pressure Air Temp Water Temp Dewpoint Dewpoint Depression Visibility Wind Speed Wind Dir Waves Ship Positions

Dr.kaiyo

Last reported at 2015-Jul-02 06:33 UTC. Time now 2015-Jul-02 16:34 UTC.
Position N 34°41' E 135°12'.

Length 31 m.

Type: Other ship. MMSI: 431301823.

Date/timePositionNaut miles runAvg speedWind from/ knotsBaromVisibWave heightAir tempDewpointWater temp
2015-Jul-02 06:33N 34°41' E 135°12'9 8.5
2015-Jul-02 05:33N 34°33' E 135°08'2 2.4
2015-Jul-02 04:33N 34°35' E 135°09'4 4.3
2015-Jul-02 03:32N 34°39' E 135°12'4 4.1
2015-Jul-02 02:33N 34°36' E 135°08'7 6.0
2015-Jul-02 01:28N 34°29' E 135°08'6 6.6
2015-Jul-02 00:33N 34°32' E 135°15'9 8.8
2015-Jul-01 23:30N 34°41' E 135°12'0 0.0
2015-Jul-01 00:33N 34°41' E 135°12'0 0.1
2015-Jun-30 23:33N 34°42' E 135°12'0 0.0
2015-Jun-30 06:22N 34°41' E 135°12'6 7.2
2015-Jun-30 05:33N 34°36' E 135°13'4 3.9
2015-Jun-30 04:33N 34°32' E 135°15'5 4.4
2015-Jun-30 03:30N 34°32' E 135°21'3 3.6
2015-Jun-30 02:33N 34°29' E 135°18'1110.8
2015-Jun-30 01:33N 34°24' E 135°07'8 8.2
2015-Jun-30 00:34N 34°32' E 135°10'1010.2
2015-Jun-29 23:33N 34°42' E 135°12'0 0.0
2015-Jun-29 06:27N 34°41' E 135°12'8 9.5
2015-Jun-29 05:33N 34°34' E 135°09'4 4.0
2015-Jun-29 04:33N 34°30' E 135°11'6 5.0
2015-Jun-29 03:22N 34°30' E 135°18'4 4.9
2015-Jun-29 02:33N 34°30' E 135°14'1210.9
2015-Jun-29 01:28N 34°24' E 135°02'1212.9
2015-Jun-29 00:33N 34°33' E 135°10'8 7.7
2015-Jun-28 23:28N 34°41' E 135°12'  
2015-Jun-26 04:33N 34°41' E 135°17'3 2.6
2015-Jun-26 03:28N 34°41' E 135°20'1 1.2
2015-Jun-26 02:33N 34°41' E 135°21'1212.1
2015-Jun-26 01:33N 34°30' E 135°14'6 5.6
2015-Jun-26 00:32N 34°32' E 135°07'1110.1
2015-Jun-25 23:29N 34°41' E 135°12'0 0.0
2015-Jun-25 05:30N 34°41' E 135°12'9 9.2
2015-Jun-25 04:33N 34°35' E 135°05'4 4.1
2015-Jun-25 03:27N 34°33' E 135°00'3 3.4
2015-Jun-25 02:33N 34°35' E 135°03'8 7.9
2015-Jun-25 01:33N 34°28' E 135°09'5 5.0
2015-Jun-25 00:30N 34°34' E 135°08'8 9.0
2015-Jun-24 23:33N 34°42' E 135°12'2 0.1
2015-Jun-24 06:33N 34°41' E 135°14'8 8.0
2015-Jun-24 05:33N 34°34' E 135°09'9 8.5
2015-Jun-24 04:33N 34°26' E 135°06'5 4.4
2015-Jun-24 03:24N 34°23' E 135°12'4 4.6
2015-Jun-24 02:29N 34°24' E 135°07'5 5.1
2015-Jun-24 01:33N 34°27' E 135°02'1413.8
2015-Jun-24 00:33N 34°39' E 135°11'2 1.9
2015-Jun-23 23:28N 34°41' E 135°13'  
Track history (hours):
 
Tides and Currents Weather Stations Pressure Air Temp Water Temp Dewpoint Dewpoint Depression Visibility Wind Speed Wind Dir Waves Ship Positions

Dr.kaiyo

Last reported at 2015-Jul-02 06:33 UTC. Time now 2015-Jul-02 16:34 UTC.
Position N 34°41' E 135°12'.

Length 31 m.

Type: Other ship. MMSI: 431301823.

Date/timePositionNaut miles runAvg speedWind from/ knotsBaromVisibWave heightAir tempDewpointWater temp
2015-Jul-02 06:33N 34°41' E 135°12'9 8.5
2015-Jul-02 05:33N 34°33' E 135°08'2 2.4
2015-Jul-02 04:33N 34°35' E 135°09'4 4.3
2015-Jul-02 03:32N 34°39' E 135°12'4 4.1
2015-Jul-02 02:33N 34°36' E 135°08'7 6.0
2015-Jul-02 01:28N 34°29' E 135°08'6 6.6
2015-Jul-02 00:33N 34°32' E 135°15'9 8.8
2015-Jul-01 23:30N 34°41' E 135°12'0 0.0
2015-Jul-01 00:33N 34°41' E 135°12'0 0.1
2015-Jun-30 23:33N 34°42' E 135°12'0 0.0
2015-Jun-30 06:22N 34°41' E 135°12'6 7.2
2015-Jun-30 05:33N 34°36' E 135°13'4 3.9
2015-Jun-30 04:33N 34°32' E 135°15'5 4.4
2015-Jun-30 03:30N 34°32' E 135°21'3 3.6
2015-Jun-30 02:33N 34°29' E 135°18'1110.8
2015-Jun-30 01:33N 34°24' E 135°07'8 8.2
2015-Jun-30 00:34N 34°32' E 135°10'1010.2
2015-Jun-29 23:33N 34°42' E 135°12'0 0.0
2015-Jun-29 06:27N 34°41' E 135°12'8 9.5
2015-Jun-29 05:33N 34°34' E 135°09'4 4.0
2015-Jun-29 04:33N 34°30' E 135°11'6 5.0
2015-Jun-29 03:22N 34°30' E 135°18'4 4.9
2015-Jun-29 02:33N 34°30' E 135°14'1210.9
2015-Jun-29 01:28N 34°24' E 135°02'1212.9
2015-Jun-29 00:33N 34°33' E 135°10'8 7.7
2015-Jun-28 23:28N 34°41' E 135°12'  
2015-Jun-26 04:33N 34°41' E 135°17'3 2.6
2015-Jun-26 03:28N 34°41' E 135°20'1 1.2
2015-Jun-26 02:33N 34°41' E 135°21'1212.1
2015-Jun-26 01:33N 34°30' E 135°14'6 5.6
2015-Jun-26 00:32N 34°32' E 135°07'1110.1
2015-Jun-25 23:29N 34°41' E 135°12'0 0.0
2015-Jun-25 05:30N 34°41' E 135°12'9 9.2
2015-Jun-25 04:33N 34°35' E 135°05'4 4.1
2015-Jun-25 03:27N 34°33' E 135°00'3 3.4
2015-Jun-25 02:33N 34°35' E 135°03'8 7.9
2015-Jun-25 01:33N 34°28' E 135°09'5 5.0
2015-Jun-25 00:30N 34°34' E 135°08'8 9.0
2015-Jun-24 23:33N 34°42' E 135°12'2 0.1
2015-Jun-24 06:33N 34°41' E 135°14'8 8.0
2015-Jun-24 05:33N 34°34' E 135°09'9 8.5
2015-Jun-24 04:33N 34°26' E 135°06'5 4.4
2015-Jun-24 03:24N 34°23' E 135°12'4 4.6
2015-Jun-24 02:29N 34°24' E 135°07'5 5.1
2015-Jun-24 01:33N 34°27' E 135°02'1413.8
2015-Jun-24 00:33N 34°39' E 135°11'2 1.9
2015-Jun-23 23:28N 34°41' E 135°13'  

Dump ship's entire track history